sensor_id;sensor_type;location;lat;lon;timestamp;pressure;altitude;pressure_sealevel;temperature;humidity
57847;BME280;43675;50.030;21.952;2022-12-07T00:01:45;98189.78;;;3.66;73.30
57847;BME280;43675;50.030;21.952;2022-12-07T00:04:12;98188.63;;;3.65;73.33
57847;BME280;43675;50.030;21.952;2022-12-07T00:06:40;98188.95;;;3.66;73.34
57847;BME280;43675;50.030;21.952;2022-12-07T00:09:13;98179.98;;;3.67;73.35
57847;BME280;43675;50.030;21.952;2022-12-07T00:11:39;98182.14;;;3.67;73.32
57847;BME280;43675;50.030;21.952;2022-12-07T00:14:07;98186.30;;;3.66;73.36
57847;BME280;43675;50.030;21.952;2022-12-07T00:16:40;98173.94;;;3.58;73.24
57847;BME280;43675;50.030;21.952;2022-12-07T00:19:06;98190.48;;;3.64;73.37
57847;BME280;43675;50.030;21.952;2022-12-07T00:21:34;98192.10;;;3.65;73.39
57847;BME280;43675;50.030;21.952;2022-12-07T00:24:01;98200.06;;;3.65;73.39
57847;BME280;43675;50.030;21.952;2022-12-07T00:26:34;98190.48;;;3.64;73.40
57847;BME280;43675;50.030;21.952;2022-12-07T00:28:59;98194.75;;;3.65;73.42
57847;BME280;43675;50.030;21.952;2022-12-07T00:31:28;98195.59;;;3.66;73.43
57847;BME280;43675;50.030;21.952;2022-12-07T00:33:54;98203.05;;;3.66;73.42
57847;BME280;43675;50.030;21.952;2022-12-07T00:36:22;98204.20;;;3.68;73.44
57847;BME280;43675;50.030;21.952;2022-12-07T00:38:49;98201.55;;;3.68;73.45
57847;BME280;43675;50.030;21.952;2022-12-07T00:41:21;98202.37;;;3.68;73.47
57847;BME280;43675;50.030;21.952;2022-12-07T00:43:45;98204.00;;;3.69;73.48
57847;BME280;43675;50.030;21.952;2022-12-07T00:46:19;98209.31;;;3.69;73.51
57847;BME280;43675;50.030;21.952;2022-12-07T00:48:45;98202.37;;;3.68;73.55
57847;BME280;43675;50.030;21.952;2022-12-07T00:51:12;98203.33;;;3.71;73.55
57847;BME280;43675;50.030;21.952;2022-12-07T00:53:38;98201.80;;;3.73;73.52
57847;BME280;43675;50.030;21.952;2022-12-07T00:56:11;98208.09;;;3.76;73.52
57847;BME280;43675;50.030;21.952;2022-12-07T00:58:33;98204.74;;;3.78;73.49
57847;BME280;43675;50.030;21.952;2022-12-07T01:01:13;98202.91;;;3.78;73.50
57847;BME280;43675;50.030;21.952;2022-12-07T01:03:38;98201.72;;;3.81;73.52
57847;BME280;43675;50.030;21.952;2022-12-07T01:06:05;98198.84;;;3.87;73.47
57847;BME280;43675;50.030;21.952;2022-12-07T01:08:31;98198.84;;;3.87;73.47
57847;BME280;43675;50.030;21.952;2022-12-07T01:10:59;98193.86;;;3.88;73.48
57847;BME280;43675;50.030;21.952;2022-12-07T01:13:25;98200.63;;;3.90;73.47
57847;BME280;43675;50.030;21.952;2022-12-07T01:15:50;98191.45;;;3.93;73.44
57847;BME280;43675;50.030;21.952;2022-12-07T01:18:16;98190.96;;;3.93;73.40
57847;BME280;43675;50.030;21.952;2022-12-07T01:20:42;98193.77;;;3.96;73.40
57847;BME280;43675;50.030;21.952;2022-12-07T01:23:08;98186.10;;;3.97;73.35
57847;BME280;43675;50.030;21.952;2022-12-07T01:25:33;98188.25;;;3.97;73.31
57847;BME280;43675;50.030;21.952;2022-12-07T01:27:59;98181.62;;;3.97;73.29
57847;BME280;43675;50.030;21.952;2022-12-07T01:30:25;98179.80;;;3.98;73.28
57847;BME280;43675;50.030;21.952;2022-12-07T01:32:51;98183.27;;;3.98;73.27
57847;BME280;43675;50.030;21.952;2022-12-07T01:35:16;98185.93;;;3.98;73.24
57847;BME280;43675;50.030;21.952;2022-12-07T01:37:48;98185.10;;;3.98;73.23
57847;BME280;43675;50.030;21.952;2022-12-07T01:40:14;98185.60;;;3.97;73.21
57847;BME280;43675;50.030;21.952;2022-12-07T01:42:40;98183.45;;;3.97;73.26
57847;BME280;43675;50.030;21.952;2022-12-07T01:48:04;98189.41;;;3.99;73.22
57847;BME280;43675;50.030;21.952;2022-12-07T01:50:31;98188.63;;;3.94;73.32
57847;BME280;43675;50.030;21.952;2022-12-07T01:52:58;98186.93;;;3.97;73.28
57847;BME280;43675;50.030;21.952;2022-12-07T01:55:25;98184.27;;;3.97;73.21
57847;BME280;43675;50.030;21.952;2022-12-07T01:57:53;98182.45;;;3.98;73.20
57847;BME280;43675;50.030;21.952;2022-12-07T02:00:20;98181.62;;;3.97;73.22
57847;BME280;43675;50.030;21.952;2022-12-07T02:03:07;98180.30;;;3.97;73.24
57847;BME280;43675;50.030;21.952;2022-12-07T02:05:34;98176.64;;;3.98;73.21
57847;BME280;43675;50.030;21.952;2022-12-07T02:08:01;98176.56;;;3.92;73.16
57847;BME280;43675;50.030;21.952;2022-12-07T02:10:30;98183.74;;;3.87;73.19
57847;BME280;43675;50.030;21.952;2022-12-07T02:13:06;98180.64;;;3.84;73.21
57847;BME280;43675;50.030;21.952;2022-12-07T02:15:37;98179.16;;;3.81;73.26
57847;BME280;43675;50.030;21.952;2022-12-07T02:18:13;98185.49;;;3.80;73.29
57847;BME280;43675;50.030;21.952;2022-12-07T02:20:40;98183.68;;;3.76;73.29
57847;BME280;43675;50.030;21.952;2022-12-07T02:23:39;98192.67;;;3.75;73.36
57847;BME280;43675;50.030;21.952;2022-12-07T02:28:37;98189.69;;;3.74;73.39
57847;BME280;43675;50.030;21.952;2022-12-07T02:31:17;98180.77;;;3.71;73.42
57847;BME280;43675;50.030;21.952;2022-12-07T02:33:53;98187.20;;;3.73;73.40
57847;BME280;43675;50.030;21.952;2022-12-07T02:36:27;98178.25;;;3.74;73.39
57847;BME280;43675;50.030;21.952;2022-12-07T02:39:07;98179.74;;;3.72;73.40
57847;BME280;43675;50.030;21.952;2022-12-07T02:41:39;98185.21;;;3.75;73.37
57847;BME280;43675;50.030;21.952;2022-12-07T02:44:08;98175.77;;;3.72;73.34
57847;BME280;43675;50.030;21.952;2022-12-07T02:46:44;98182.40;;;3.72;73.33
57847;BME280;43675;50.030;21.952;2022-12-07T02:49:10;98175.77;;;3.72;73.32
57847;BME280;43675;50.030;21.952;2022-12-07T02:51:41;98173.31;;;3.71;73.26
57847;BME280;43675;50.030;21.952;2022-12-07T02:54:17;98175.14;;;3.70;73.25
57847;BME280;43675;50.030;21.952;2022-12-07T02:56:46;98175.19;;;3.66;73.21
57847;BME280;43675;50.030;21.952;2022-12-07T02:59:56;98180.70;;;3.61;73.22
57847;BME280;43675;50.030;21.952;2022-12-07T03:13:48;98182.97;;;3.34;73.61
57847;BME280;43675;50.030;21.952;2022-12-07T03:16:15;98180.82;;;3.34;73.67
57847;BME280;43675;50.030;21.952;2022-12-07T03:18:49;98177.08;;;3.28;73.71
57847;BME280;43675;50.030;21.952;2022-12-07T03:21:14;98177.30;;;3.38;73.64
57847;BME280;43675;50.030;21.952;2022-12-07T03:23:43;98173.28;;;3.42;73.64
57847;BME280;43675;50.030;21.952;2022-12-07T03:26:12;98170.92;;;3.47;73.66
57847;BME280;43675;50.030;21.952;2022-12-07T03:28:43;98172.08;;;3.48;73.72
57847;BME280;43675;50.030;21.952;2022-12-07T03:31:18;98164.08;;;3.52;73.74
57847;BME280;43675;50.030;21.952;2022-12-07T03:33:52;98164.83;;;3.57;73.76
57847;BME280;43675;50.030;21.952;2022-12-07T03:36:25;98160.18;;;3.59;73.74
57847;BME280;43675;50.030;21.952;2022-12-07T03:39:04;98159.48;;;3.61;73.71
57847;BME280;43675;50.030;21.952;2022-12-07T03:41:32;98151.67;;;3.63;73.70
57847;BME280;43675;50.030;21.952;2022-12-07T03:43:59;98152.50;;;3.64;73.69
57847;BME280;43675;50.030;21.952;2022-12-07T03:46:45;98148.15;;;3.67;73.67
57847;BME280;43675;50.030;21.952;2022-12-07T03:52:06;98147.65;;;3.67;73.66
57847;BME280;43675;50.030;21.952;2022-12-07T03:57:04;98140.19;;;3.67;73.73
57847;BME280;43675;50.030;21.952;2022-12-07T03:59:31;98138.48;;;3.70;73.70
57847;BME280;43675;50.030;21.952;2022-12-07T04:02:02;98136.66;;;3.70;73.69
57847;BME280;43675;50.030;21.952;2022-12-07T04:04:29;98127.99;;;3.72;73.67
57847;BME280;43675;50.030;21.952;2022-12-07T04:06:55;98132.30;;;3.73;73.66
57847;BME280;43675;50.030;21.952;2022-12-07T04:09:20;98135.28;;;3.74;73.65
57847;BME280;43675;50.030;21.952;2022-12-07T04:11:46;98139.89;;;3.76;73.63
57847;BME280;43675;50.030;21.952;2022-12-07T04:14:12;98144.20;;;3.77;73.62
57847;BME280;43675;50.030;21.952;2022-12-07T04:16:38;98135.56;;;3.79;73.64
57847;BME280;43675;50.030;21.952;2022-12-07T04:19:04;98140.38;;;3.80;73.60
57847;BME280;43675;50.030;21.952;2022-12-07T04:21:30;98140.16;;;3.81;73.59
57847;BME280;43675;50.030;21.952;2022-12-07T04:23:55;98134.19;;;3.84;73.62
57847;BME280;43675;50.030;21.952;2022-12-07T04:26:21;98132.03;;;3.83;73.60
57847;BME280;43675;50.030;21.952;2022-12-07T04:28:47;98134.81;;;3.86;73.60
57847;BME280;43675;50.030;21.952;2022-12-07T04:31:12;98135.14;;;3.87;73.56
57847;BME280;43675;50.030;21.952;2022-12-07T04:33:38;98133.63;;;3.88;73.56
57847;BME280;43675;50.030;21.952;2022-12-07T04:36:04;98129.45;;;3.90;73.57
57847;BME280;43675;50.030;21.952;2022-12-07T04:38:30;98125.80;;;3.91;73.54
57847;BME280;43675;50.030;21.952;2022-12-07T04:40:56;98133.55;;;3.92;73.48
57847;BME280;43675;50.030;21.952;2022-12-07T04:43:22;98129.78;;;3.91;73.47
57847;BME280;43675;50.030;21.952;2022-12-07T04:45:48;98135.59;;;3.90;73.48
57847;BME280;43675;50.030;21.952;2022-12-07T04:48:14;98127.63;;;3.90;73.48
57847;BME280;43675;50.030;21.952;2022-12-07T04:50:40;98131.60;;;3.90;73.49
57847;BME280;43675;50.030;21.952;2022-12-07T04:53:06;98125.47;;;3.90;73.52
57847;BME280;43675;50.030;21.952;2022-12-07T04:55:31;98127.45;;;3.92;73.52
57847;BME280;43675;50.030;21.952;2022-12-07T04:57:57;98122.94;;;3.92;73.54
57847;BME280;43675;50.030;21.952;2022-12-07T05:00:23;98121.11;;;3.93;73.51
57847;BME280;43675;50.030;21.952;2022-12-07T05:02:48;98124.09;;;3.94;73.49
57847;BME280;43675;50.030;21.952;2022-12-07T05:05:14;98116.63;;;3.93;73.49
57847;BME280;43675;50.030;21.952;2022-12-07T05:07:40;98121.27;;;3.95;73.48
57847;BME280;43675;50.030;21.952;2022-12-07T05:10:07;98115.62;;;3.94;73.46
57847;BME280;43675;50.030;21.952;2022-12-07T05:12:32;98115.12;;;3.95;73.45
57847;BME280;43675;50.030;21.952;2022-12-07T05:14:58;98112.80;;;3.96;73.45
57847;BME280;43675;50.030;21.952;2022-12-07T05:17:24;98110.94;;;3.96;73.41
57847;BME280;43675;50.030;21.952;2022-12-07T05:19:50;98113.30;;;3.95;73.34
57847;BME280;43675;50.030;21.952;2022-12-07T05:22:15;98113.30;;;3.95;73.34
57847;BME280;43675;50.030;21.952;2022-12-07T05:24:41;98117.78;;;3.95;73.31
57847;BME280;43675;50.030;21.952;2022-12-07T05:27:06;98122.77;;;3.94;73.33
57847;BME280;43675;50.030;21.952;2022-12-07T05:29:32;98117.28;;;3.95;73.32
57847;BME280;43675;50.030;21.952;2022-12-07T05:31:58;98115.30;;;3.93;73.29
57847;BME280;43675;50.030;21.952;2022-12-07T05:34:24;98110.48;;;3.93;73.28
57847;BME280;43675;50.030;21.952;2022-12-07T05:36:50;98108.98;;;3.94;73.26
57847;BME280;43675;50.030;21.952;2022-12-07T05:39:15;98113.14;;;3.93;73.24
57847;BME280;43675;50.030;21.952;2022-12-07T05:41:41;98108.21;;;3.90;73.27
57847;BME280;43675;50.030;21.952;2022-12-07T05:44:07;98119.98;;;3.91;73.27
57847;BME280;43675;50.030;21.952;2022-12-07T05:46:34;98120.48;;;3.91;73.28
57847;BME280;43675;50.030;21.952;2022-12-07T05:49:00;98122.14;;;3.92;73.24
57847;BME280;43675;50.030;21.952;2022-12-07T05:51:26;98119.66;;;3.90;73.25
57847;BME280;43675;50.030;21.952;2022-12-07T05:53:52;98118.66;;;3.91;73.27
57847;BME280;43675;50.030;21.952;2022-12-07T05:56:18;98119.33;;;3.89;73.19
57847;BME280;43675;50.030;21.952;2022-12-07T05:58:44;98118.00;;;3.89;73.21
57847;BME280;43675;50.030;21.952;2022-12-07T06:01:10;98121.69;;;3.88;73.22
57847;BME280;43675;50.030;21.952;2022-12-07T06:03:35;98123.31;;;3.89;73.25
57847;BME280;43675;50.030;21.952;2022-12-07T06:06:01;98116.67;;;3.89;73.25
57847;BME280;43675;50.030;21.952;2022-12-07T06:08:27;98117.50;;;3.90;73.20
57847;BME280;43675;50.030;21.952;2022-12-07T06:10:52;98114.84;;;3.90;73.19
57847;BME280;43675;50.030;21.952;2022-12-07T06:13:18;98114.84;;;3.90;73.18
57847;BME280;43675;50.030;21.952;2022-12-07T06:15:44;98110.55;;;3.89;73.20
57847;BME280;43675;50.030;21.952;2022-12-07T06:18:10;98115.85;;;3.89;73.18
57847;BME280;43675;50.030;21.952;2022-12-07T06:20:35;98105.61;;;3.86;73.20
57847;BME280;43675;50.030;21.952;2022-12-07T06:23:01;98111.75;;;3.86;73.18
57847;BME280;43675;50.030;21.952;2022-12-07T06:25:27;98113.08;;;3.86;73.20
57847;BME280;43675;50.030;21.952;2022-12-07T06:27:52;98108.59;;;3.87;73.17
57847;BME280;43675;50.030;21.952;2022-12-07T06:30:18;98107.27;;;3.87;73.17
57847;BME280;43675;50.030;21.952;2022-12-07T06:32:44;98107.27;;;3.87;73.17
57847;BME280;43675;50.030;21.952;2022-12-07T06:35:09;98108.77;;;3.85;73.18
57847;BME280;43675;50.030;21.952;2022-12-07T06:37:35;98107.94;;;3.85;73.18
57847;BME280;43675;50.030;21.952;2022-12-07T06:40:01;98104.78;;;3.85;73.23
57847;BME280;43675;50.030;21.952;2022-12-07T06:42:26;98108.09;;;3.87;73.21
57847;BME280;43675;50.030;21.952;2022-12-07T06:44:52;98113.90;;;3.87;73.21
57847;BME280;43675;50.030;21.952;2022-12-07T06:47:18;98111.58;;;3.88;73.21
57847;BME280;43675;50.030;21.952;2022-12-07T06:49:44;98107.59;;;3.88;73.23
57847;BME280;43675;50.030;21.952;2022-12-07T06:52:09;98111.87;;;3.89;73.25
57847;BME280;43675;50.030;21.952;2022-12-07T06:54:35;98099.18;;;3.84;73.25
57847;BME280;43675;50.030;21.952;2022-12-07T06:57:01;98116.30;;;3.92;73.24
57847;BME280;43675;50.030;21.952;2022-12-07T06:59:27;98118.28;;;3.94;73.21
57847;BME280;43675;50.030;21.952;2022-12-07T07:01:52;98118.28;;;3.94;73.22
57847;BME280;43675;50.030;21.952;2022-12-07T07:04:18;98117.28;;;3.95;73.19
57847;BME280;43675;50.030;21.952;2022-12-07T07:06:44;98118.11;;;3.96;73.17
57847;BME280;43675;50.030;21.952;2022-12-07T07:09:09;98120.55;;;3.97;73.17
57847;BME280;43675;50.030;21.952;2022-12-07T07:11:35;98125.19;;;3.99;73.16
57847;BME280;43675;50.030;21.952;2022-12-07T07:14:01;98133.98;;;4.00;73.15
57847;BME280;43675;50.030;21.952;2022-12-07T07:16:27;98127.64;;;4.01;73.12
57847;BME280;43675;50.030;21.952;2022-12-07T07:18:52;98125.64;;;4.03;73.10
57847;BME280;43675;50.030;21.952;2022-12-07T07:21:18;98131.28;;;4.04;73.06
57847;BME280;43675;50.030;21.952;2022-12-07T07:23:44;98132.60;;;4.04;73.06
57847;BME280;43675;50.030;21.952;2022-12-07T07:26:09;98135.05;;;4.05;73.03
57847;BME280;43675;50.030;21.952;2022-12-07T07:28:35;98135.88;;;4.06;73.00
57847;BME280;43675;50.030;21.952;2022-12-07T07:31:01;98128.09;;;4.04;72.96
57847;BME280;43675;50.030;21.952;2022-12-07T07:33:26;98131.90;;;4.06;72.94
57847;BME280;43675;50.030;21.952;2022-12-07T07:35:52;98128.73;;;4.06;72.93
57847;BME280;43675;50.030;21.952;2022-12-07T07:38:18;98126.91;;;4.07;72.90
57847;BME280;43675;50.030;21.952;2022-12-07T07:40:43;98124.05;;;4.08;72.89
57847;BME280;43675;50.030;21.952;2022-12-07T07:43:09;98125.20;;;4.10;72.88
57847;BME280;43675;50.030;21.952;2022-12-07T07:45:35;98130.34;;;4.11;72.85
57847;BME280;43675;50.030;21.952;2022-12-07T07:48:01;98129.13;;;4.14;72.82
57847;BME280;43675;50.030;21.952;2022-12-07T07:50:27;98134.45;;;4.14;72.76
57847;BME280;43675;50.030;21.952;2022-12-07T07:52:53;98134.77;;;4.15;72.74
57847;BME280;43675;50.030;21.952;2022-12-07T07:55:18;98135.77;;;4.14;72.71
57847;BME280;43675;50.030;21.952;2022-12-07T07:57:44;98134.95;;;4.13;72.71
57847;BME280;43675;50.030;21.952;2022-12-07T08:00:12;98128.63;;;4.14;72.72
57847;BME280;43675;50.030;21.952;2022-12-07T08:02:39;98130.28;;;4.15;72.70
57847;BME280;43675;50.030;21.952;2022-12-07T08:05:11;98136.39;;;4.16;72.71
57847;BME280;43675;50.030;21.952;2022-12-07T08:07:33;98133.89;;;4.18;72.73
57847;BME280;43675;50.030;21.952;2022-12-07T08:09:59;98140.33;;;4.20;72.69
57847;BME280;43675;50.030;21.952;2022-12-07T08:12:25;98143.63;;;4.22;72.67
57847;BME280;43675;50.030;21.952;2022-12-07T08:14:51;98149.06;;;4.24;72.64
57847;BME280;43675;50.030;21.952;2022-12-07T08:17:16;98142.92;;;4.24;72.61
57847;BME280;43675;50.030;21.952;2022-12-07T08:19:42;98142.58;;;4.27;72.61
57847;BME280;43675;50.030;21.952;2022-12-07T08:22:08;98144.20;;;4.28;72.57
57847;BME280;43675;50.030;21.952;2022-12-07T08:24:34;98143.19;;;4.29;72.51
57847;BME280;43675;50.030;21.952;2022-12-07T08:27:00;98148.63;;;4.32;72.47
57847;BME280;43675;50.030;21.952;2022-12-07T08:29:26;98149.90;;;4.36;72.18
57847;BME280;43675;50.030;21.952;2022-12-07T08:31:52;98149.90;;;4.36;72.18
57847;BME280;43675;50.030;21.952;2022-12-07T08:34:18;98150.72;;;4.36;72.37
57847;BME280;43675;50.030;21.952;2022-12-07T08:36:44;98152.70;;;4.38;72.35
57847;BME280;43675;50.030;21.952;2022-12-07T08:39:09;98155.36;;;4.38;72.29
57847;BME280;43675;50.030;21.952;2022-12-07T08:41:35;98160.17;;;4.39;72.24
57847;BME280;43675;50.030;21.952;2022-12-07T08:44:02;98154.33;;;4.39;72.22
57847;BME280;43675;50.030;21.952;2022-12-07T08:46:34;98163.13;;;4.40;72.15
57847;BME280;43675;50.030;21.952;2022-12-07T08:49:25;98155.66;;;4.39;72.16
57847;BME280;43675;50.030;21.952;2022-12-07T08:51:48;98160.97;;;4.39;72.16
57847;BME280;43675;50.030;21.952;2022-12-07T08:54:15;98161.67;;;4.37;72.25
57847;BME280;43675;50.030;21.952;2022-12-07T08:56:43;98162.30;;;4.39;72.24
57847;BME280;43675;50.030;21.952;2022-12-07T08:59:09;98156.92;;;4.43;72.20
57847;BME280;43675;50.030;21.952;2022-12-07T09:01:36;98162.00;;;4.49;72.14
57847;BME280;43675;50.030;21.952;2022-12-07T09:04:02;98150.99;;;4.52;72.01
57847;BME280;43675;50.030;21.952;2022-12-07T09:06:27;98156.13;;;4.53;71.94
57847;BME280;43675;50.030;21.952;2022-12-07T09:08:56;98158.97;;;4.52;71.91
57847;BME280;43675;50.030;21.952;2022-12-07T09:11:23;98158.79;;;4.53;71.94
57847;BME280;43675;50.030;21.952;2022-12-07T09:13:48;98160.73;;;4.55;71.96
57847;BME280;43675;50.030;21.952;2022-12-07T09:16:14;98159.05;;;4.58;71.90
57847;BME280;43675;50.030;21.952;2022-12-07T09:18:40;98152.20;;;4.60;71.84
57847;BME280;43675;50.030;21.952;2022-12-07T09:21:05;98150.19;;;4.62;71.81
57847;BME280;43675;50.030;21.952;2022-12-07T09:23:31;98154.80;;;4.64;71.76
57847;BME280;43675;50.030;21.952;2022-12-07T09:26:04;98146.14;;;4.66;71.74
57847;BME280;43675;50.030;21.952;2022-12-07T09:28:31;98151.08;;;4.69;71.70
57847;BME280;43675;50.030;21.952;2022-12-07T09:30:57;98152.91;;;4.68;71.65
57847;BME280;43675;50.030;21.952;2022-12-07T09:33:23;98154.06;;;4.70;71.62
57847;BME280;43675;50.030;21.952;2022-12-07T09:35:50;98145.05;;;4.71;71.61
57847;BME280;43675;50.030;21.952;2022-12-07T09:38:18;98146.20;;;4.72;71.63
57847;BME280;43675;50.030;21.952;2022-12-07T09:40:45;98145.88;;;4.71;71.55
57847;BME280;43675;50.030;21.952;2022-12-07T09:43:16;98135.74;;;4.71;71.55
57847;BME280;43675;50.030;21.952;2022-12-07T09:45:44;98138.73;;;4.72;71.55
57847;BME280;43675;50.030;21.952;2022-12-07T09:48:17;98141.38;;;4.72;71.51
57847;BME280;43675;50.030;21.952;2022-12-07T09:50:41;98141.50;;;4.74;71.52
57847;BME280;43675;50.030;21.952;2022-12-07T09:53:14;98131.02;;;4.77;71.47
57847;BME280;43675;50.030;21.952;2022-12-07T09:55:38;98134.29;;;4.79;71.33
57847;BME280;43675;50.030;21.952;2022-12-07T09:58:06;98136.95;;;4.79;71.20
57847;BME280;43675;50.030;21.952;2022-12-07T10:00:31;98135.83;;;4.78;71.10
57847;BME280;43675;50.030;21.952;2022-12-07T10:03:02;98130.36;;;4.75;71.04
57847;BME280;43675;50.030;21.952;2022-12-07T10:05:36;98133.41;;;4.72;71.08
57847;BME280;43675;50.030;21.952;2022-12-07T10:08:03;98132.80;;;4.70;71.09
57847;BME280;43675;50.030;21.952;2022-12-07T10:10:32;98132.03;;;4.65;71.16
57847;BME280;43675;50.030;21.952;2022-12-07T10:13:06;98134.04;;;4.63;71.12
57847;BME280;43675;50.030;21.952;2022-12-07T10:21:12;98130.89;;;4.53;71.32
57847;BME280;43675;50.030;21.952;2022-12-07T10:23:40;98133.55;;;4.53;71.37
57847;BME280;43675;50.030;21.952;2022-12-07T10:28:55;98129.61;;;4.60;71.30
57847;BME280;43675;50.030;21.952;2022-12-07T10:31:22;98130.11;;;4.59;71.24
57847;BME280;43675;50.030;21.952;2022-12-07T10:33:54;98131.59;;;4.62;71.24
57847;BME280;43675;50.030;21.952;2022-12-07T10:36:35;98134.86;;;4.64;71.20
57847;BME280;43675;50.030;21.952;2022-12-07T10:39:22;98132.03;;;4.65;71.19
57847;BME280;43675;50.030;21.952;2022-12-07T10:41:59;98134.19;;;4.66;71.21
57847;BME280;43675;50.030;21.952;2022-12-07T10:44:30;98133.86;;;4.65;71.25
57847;BME280;43675;50.030;21.952;2022-12-07T10:49:55;98131.53;;;4.66;71.09
57847;BME280;43675;50.030;21.952;2022-12-07T11:00:42;98132.97;;;4.68;71.26
57847;BME280;43675;50.030;21.952;2022-12-07T11:08:53;98127.95;;;4.91;71.09
57847;BME280;43675;50.030;21.952;2022-12-07T11:13:59;98127.99;;;5.08;71.00
57847;BME280;43675;50.030;21.952;2022-12-07T11:21:39;98110.63;;;5.40;70.60
57847;BME280;43675;50.030;21.952;2022-12-07T11:24:15;98112.63;;;5.48;70.50
57847;BME280;43675;50.030;21.952;2022-12-07T11:29:39;98115.34;;;5.61;70.38
57847;BME280;43675;50.030;21.952;2022-12-07T11:32:14;98110.45;;;5.65;70.35
57847;BME280;43675;50.030;21.952;2022-12-07T11:37:37;98102.72;;;5.77;70.23
57847;BME280;43675;50.030;21.952;2022-12-07T11:40:20;98112.36;;;5.78;70.17
57847;BME280;43675;50.030;21.952;2022-12-07T11:45:32;98116.75;;;5.75;69.94
57847;BME280;43675;50.030;21.952;2022-12-07T11:50:38;98109.75;;;5.67;70.02
57847;BME280;43675;50.030;21.952;2022-12-07T12:06:41;98117.53;;;5.17;70.12
57847;BME280;43675;50.030;21.952;2022-12-07T12:12:12;98112.47;;;5.11;70.13
57847;BME280;43675;50.030;21.952;2022-12-07T12:14:37;98114.05;;;5.06;70.35
57847;BME280;43675;50.030;21.952;2022-12-07T12:20:19;98109.63;;;5.13;70.01
57847;BME280;43675;50.030;21.952;2022-12-07T12:22:49;98112.14;;;5.10;70.16
57847;BME280;43675;50.030;21.952;2022-12-07T12:25:20;98120.95;;;5.11;70.09
57847;BME280;43675;50.030;21.952;2022-12-07T12:27:47;98117.86;;;5.07;69.81
57847;BME280;43675;50.030;21.952;2022-12-07T12:32:52;98111.03;;;4.98;69.74
57847;BME280;43675;50.030;21.952;2022-12-07T12:35:35;98115.04;;;4.88;69.87
57847;BME280;43675;50.030;21.952;2022-12-07T12:40:52;98125.06;;;4.86;69.99
57847;BME280;43675;50.030;21.952;2022-12-07T12:43:41;98116.33;;;4.81;69.88
57847;BME280;43675;50.030;21.952;2022-12-07T12:51:44;98120.39;;;4.66;70.09
57847;BME280;43675;50.030;21.952;2022-12-07T12:54:34;98123.73;;;4.64;70.14
57847;BME280;43675;50.030;21.952;2022-12-07T12:57:22;98114.04;;;4.67;70.15
57847;BME280;43675;50.030;21.952;2022-12-07T12:59:56;98121.84;;;4.69;70.16
57847;BME280;43675;50.030;21.952;2022-12-07T13:07:58;98117.02;;;4.68;70.09
57847;BME280;43675;50.030;21.952;2022-12-07T13:26:36;98131.89;;;4.42;69.99
57847;BME280;43675;50.030;21.952;2022-12-07T13:29:12;98134.61;;;4.38;70.03
57847;BME280;43675;50.030;21.952;2022-12-07T13:31:58;98128.85;;;4.34;69.99
57847;BME280;43675;50.030;21.952;2022-12-07T13:34:35;98135.34;;;4.32;69.99
57847;BME280;43675;50.030;21.952;2022-12-07T13:39:46;98131.63;;;4.26;69.98
57847;BME280;43675;50.030;21.952;2022-12-07T13:44:54;98138.11;;;4.23;70.02
57847;BME280;43675;50.030;21.952;2022-12-07T13:47:31;98136.78;;;4.23;70.09
57847;BME280;43675;50.030;21.952;2022-12-07T13:49:58;98134.28;;;4.26;70.06
57847;BME280;43675;50.030;21.952;2022-12-07T13:52:31;98142.04;;;4.27;70.13
57847;BME280;43675;50.030;21.952;2022-12-07T13:55:14;98135.73;;;4.28;70.10
57847;BME280;43675;50.030;21.952;2022-12-07T13:57:41;98136.38;;;4.31;70.13
57847;BME280;43675;50.030;21.952;2022-12-07T14:00:16;98138.64;;;4.23;70.27
57847;BME280;43675;50.030;21.952;2022-12-07T14:02:59;98142.04;;;4.27;70.14
57847;BME280;43675;50.030;21.952;2022-12-07T14:05:26;98137.55;;;4.28;70.16
57847;BME280;43675;50.030;21.952;2022-12-07T14:07:58;98141.25;;;4.27;70.20
57847;BME280;43675;50.030;21.952;2022-12-07T14:10:30;98145.23;;;4.27;70.23
57847;BME280;43675;50.030;21.952;2022-12-07T14:12:57;98145.41;;;4.25;70.26
57847;BME280;43675;50.030;21.952;2022-12-07T14:15:27;98152.22;;;4.24;70.32
57847;BME280;43675;50.030;21.952;2022-12-07T14:17:54;98155.70;;;4.24;70.37
57847;BME280;43675;50.030;21.952;2022-12-07T14:20:35;98153.55;;;4.24;70.42
57847;BME280;43675;50.030;21.952;2022-12-07T14:23:03;98147.94;;;4.23;70.45
57847;BME280;43675;50.030;21.952;2022-12-07T14:25:32;98143.30;;;4.21;70.50
57847;BME280;43675;50.030;21.952;2022-12-07T14:28:00;98148.82;;;4.19;70.55
57847;BME280;43675;50.030;21.952;2022-12-07T14:30:29;98149.00;;;4.18;70.54
57847;BME280;43675;50.030;21.952;2022-12-07T14:33:01;98146.02;;;4.17;70.58
57847;BME280;43675;50.030;21.952;2022-12-07T14:35:27;98143.56;;;4.15;70.61
57847;BME280;43675;50.030;21.952;2022-12-07T14:37:53;98138.43;;;4.14;70.66
57847;BME280;43675;50.030;21.952;2022-12-07T14:40:22;98137.27;;;4.12;70.69
57847;BME280;43675;50.030;21.952;2022-12-07T14:42:51;98136.98;;;4.11;70.76
57847;BME280;43675;50.030;21.952;2022-12-07T14:45:20;98137.98;;;4.10;70.81
57847;BME280;43675;50.030;21.952;2022-12-07T14:47:46;98142.14;;;4.09;70.92
57847;BME280;43675;50.030;21.952;2022-12-07T14:50:18;98147.66;;;4.07;70.96
57847;BME280;43675;50.030;21.952;2022-12-07T14:52:43;98146.83;;;4.07;71.02
57847;BME280;43675;50.030;21.952;2022-12-07T14:55:30;98148.33;;;4.05;71.07
57847;BME280;43675;50.030;21.952;2022-12-07T14:57:57;98148.53;;;4.04;71.11
57847;BME280;43675;50.030;21.952;2022-12-07T15:00:24;98145.61;;;3.99;71.27
57847;BME280;43675;50.030;21.952;2022-12-07T15:02:51;98148.11;;;3.96;71.32
57847;BME280;43675;50.030;21.952;2022-12-07T15:05:18;98142.00;;;3.96;71.41
57847;BME280;43675;50.030;21.952;2022-12-07T15:07:45;98139.52;;;3.94;71.47
57847;BME280;43675;50.030;21.952;2022-12-07T15:10:25;98141.52;;;3.92;71.55
57847;BME280;43675;50.030;21.952;2022-12-07T15:12:47;98139.24;;;3.89;71.61